• Join FlightAware (Why Join?)
  • Login
  • US Flag 
06:01PM EST


 

Airport Tracker/Info


-or-


 

Live Flight TrackerFlight Track Log ✈ GLA52N ✈ 02-May-2013 ✈ KDEN - KLBF

Flight Track Log - Related Links

Times and Time Zones

All times are in EDT time to prevent confusion due to time zone crossing. See the GLA52N flight status page for this flight to view local times or setup timezone preferences in your user account.

Time Position Orientation Groundspeed Altitude Reporting Facility
EDT Latitude Longitude Course Direction KTS MPH feet Rate Location/Type
12:58PM 39.9367 -104.5500 94° East 213 245 8,500  Level Denver Center
12:58PM 39.9333 -104.4833 94° East 245 282 9,200 813 Climbing Denver TRACON
12:59PM 39.9167 -104.4167 108° East 249 287 9,800 723 Climbing Denver TRACON
01:00PM 39.9169 -104.3689 90° East 248 285 10,200 600 Climbing Denver Center
01:01PM 39.9086 -104.2733 96° East 248 285 10,700 532 Climbing Denver Center
01:02PM 39.9231 -104.1856 78° East 248 285 11,300 629 Climbing Denver Center
01:03PM 39.9439 -104.0917 74° East 251 289 12,000 532 Climbing Denver Center
01:04PM 39.9631 -104.0036 74° East 252 290 12,400 387 Climbing Denver Center
01:05PM 39.9831 -103.9072 75° East 256 295 12,800 581 Climbing Denver Center
01:06PM 39.9992 -103.8186 77° East 253 291 13,600 823 Climbing Denver Center
01:07PM 40.0144 -103.7325 77° East 246 283 14,500 919 Climbing Denver Center
01:08PM 40.0425 -103.6456 67° East 243 280 15,500 1,016 Climbing Denver Center
01:09PM 40.0758 -103.5722 59° Northeast 234 269 16,600 919 Climbing Denver Center
01:10PM 40.1019 -103.4953 66° East 239 275 17,400 532 Climbing Denver Center
01:11PM 40.1189 -103.3967 77° East 247 284 17,700 484 Climbing Denver Center
01:12PM 40.1278 -103.3081 82° East 255 293 18,400 581 Climbing Denver Center
01:13PM 40.1381 -103.2358 79° East 256 295 18,900 574 Climbing Denver Center
01:14PM 40.1644 -103.1222 73° East 255 293 19,700 701 Climbing Denver Center
01:15PM 40.1961 -103.0114 69° East 255 293 20,500 576 Climbing Denver Center
01:17PM 40.2239 -102.9306 66° East 254 292 20,900 629 Climbing Denver Center
01:18PM 40.2556 -102.8344 67° East 258 297 21,800 726 Climbing Denver Center
01:19PM 40.2869 -102.7533 63° Northeast 260 299 22,400 581 Climbing Denver Center
01:20PM 40.3283 -102.6633 59° Northeast 260 299 23,000 290 Climbing Denver Center
01:21PM 40.3600 -102.5778 64° Northeast 270 311 23,000  Level Denver Center
01:22PM 40.4028 -102.4783 61° Northeast 278 320 23,000 -48 Level Denver Center
01:23PM 40.4319 -102.3903 66° East 276 318 22,900 -48 Descending Denver Center
01:24PM 40.4683 -102.2853 65° Northeast 281 323 22,900  Level Denver Center
01:25PM 40.5022 -102.1992 63° Northeast 280 322 22,900 48 Level Denver Center
01:26PM 40.5461 -102.1008 60° Northeast 280 322 23,000 48 Climbing Denver Center
01:27PM 40.5767 -102.0108 66° East 282 325 23,000  Level Denver Center
01:28PM 40.6039 -101.9183 69° East 283 326 23,000  Level Denver Center
01:29PM 40.6436 -101.8131 64° Northeast 286 329 23,000  Level Denver Center
01:30PM 40.6836 -101.7292 58° Northeast 284 327 23,000 -576 Level Denver Center
01:31PM 40.7297 -101.6306 58° Northeast 283 326 21,800 -1,258 Descending Denver Center
01:32PM 40.7650 -101.5450 61° Northeast 278 320 20,400 -1,403 Descending Denver Center
01:33PM 40.8017 -101.4436 64° Northeast 276 318 18,900 -1,113 Descending Denver Center
01:34PM 40.8306 -101.3558 66° East 273 314 18,100 -1,210 Descending Denver Center
01:35PM 40.8636 -101.2539 67° East 271 312 16,400 -1,694 Descending Denver Center
01:36PM 40.8928 -101.1722 65° Northeast 261 300 14,600 -1,790 Descending Denver Center
01:37PM 40.9278 -101.0772 64° Northeast 257 296 12,700 -1,839 Descending Denver Center
01:38PM 40.9628 -101.0011 59° Northeast 254 292 10,800 -1,694 Descending Denver Center
01:39PM 40.9972 -100.9303 57° Northeast 242 278 9,200 -1,597 Descending Denver Center
01:40PM 41.0233 -100.8392 69° East 236 272 7,500 -1,306 Descending Denver Center
01:41PM 41.0411 -100.7617 73° East 232 267 6,500 -1,113 Descending Denver Center
01:42PM 41.0569 -100.6869 74° East 198 228 5,200 -1,161 Descending Denver Center
01:43PM 41.0861 -100.6472 46° Northeast 168 193 4,100 -1,065 Descending Denver Center
01:44PM 41.1144 -100.6597 342° North 143 165 3,000 -1,065 Descending Denver Center
01:47PM 41.1167 -100.6833 North  Level FlightAware Approximate